createdAt,value
2022-08-31T00:00:43.450Z,1.58
2022-08-31T00:02:14.949Z,1.69
2022-08-31T00:03:46.439Z,1.63
2022-08-31T00:05:17.848Z,1.73
2022-08-31T00:06:49.710Z,1.78
2022-08-31T00:08:25.400Z,1.68
2022-08-31T00:09:57.062Z,1.54
2022-08-31T00:11:28.473Z,1.65
2022-08-31T00:13:00.672Z,1.52
2022-08-31T00:14:32.034Z,1.46
2022-08-31T00:16:04.175Z,1.53
2022-08-31T00:17:35.591Z,1.52
2022-08-31T00:19:07.095Z,1.52
2022-08-31T00:20:38.467Z,1.48
2022-08-31T00:22:09.834Z,1.43
2022-08-31T00:23:41.445Z,1.52
2022-08-31T00:25:12.842Z,1.54
2022-08-31T00:26:44.389Z,1.41
2022-08-31T00:28:15.733Z,1.28
2022-08-31T00:29:47.146Z,1.54
2022-08-31T00:31:18.512Z,1.39
2022-08-31T00:32:49.888Z,1.38
2022-08-31T00:34:21.321Z,1.36
2022-08-31T00:35:52.667Z,1.32
2022-08-31T00:37:26.294Z,1.38
2022-08-31T00:38:57.811Z,1.25
2022-08-31T00:40:29.289Z,1.24
2022-08-31T00:42:00.758Z,1.19
2022-08-31T00:43:32.106Z,1.29
2022-08-31T00:45:03.607Z,1.34
2022-08-31T00:46:47.653Z,1.31
2022-08-31T00:48:19.084Z,1.30
2022-08-31T00:49:50.385Z,1.16
2022-08-31T00:51:21.786Z,1.26
2022-08-31T00:52:53.236Z,1.34
2022-08-31T00:54:24.582Z,1.12
2022-08-31T00:55:56.005Z,1.09
2022-08-31T00:57:34.228Z,1.10
2022-08-31T00:59:06.013Z,1.03
2022-08-31T01:00:42.415Z,1.20
2022-08-31T01:02:13.796Z,1.06
2022-08-31T01:03:45.229Z,1.02
2022-08-31T01:05:16.938Z,1.05
2022-08-31T01:06:48.322Z,1.05
2022-08-31T01:08:21.576Z,1.49
2022-08-31T01:10:02.299Z,1.06
2022-08-31T01:11:33.661Z,1.06
2022-08-31T01:13:05.117Z,1.06
2022-08-31T01:14:37.526Z,1.15
2022-08-31T01:16:09.868Z,0.97
2022-08-31T01:17:41.261Z,1.02
2022-08-31T01:19:12.664Z,1.10
2022-08-31T01:20:45.814Z,1.28
2022-08-31T01:22:20.678Z,1.07
2022-08-31T01:23:52.198Z,1.03
2022-08-31T01:25:23.758Z,0.98
2022-08-31T01:27:04.865Z,0.95
2022-08-31T01:28:36.306Z,1.10
2022-08-31T01:30:07.684Z,1.05
2022-08-31T01:31:39.219Z,1.03
2022-08-31T01:33:10.659Z,1.08
2022-08-31T01:34:42.116Z,0.96
2022-08-31T01:36:16.087Z,1.10
2022-08-31T01:37:47.756Z,1.15
2022-08-31T01:39:19.086Z,1.09
2022-08-31T01:40:50.612Z,1.03
2022-08-31T01:42:21.953Z,1.02
2022-08-31T01:43:53.337Z,1.09
2022-08-31T01:45:29.935Z,1.00
2022-08-31T01:47:01.337Z,0.97
2022-08-31T01:48:32.807Z,1.03
2022-08-31T01:50:05.935Z,1.06
2022-08-31T01:51:37.281Z,1.10
2022-08-31T01:53:08.568Z,0.92
2022-08-31T01:54:39.942Z,0.94
2022-08-31T01:56:11.261Z,1.02
2022-08-31T01:57:42.608Z,1.04
2022-08-31T01:59:13.913Z,1.07
2022-08-31T02:00:45.362Z,0.87
2022-08-31T02:02:16.976Z,1.07
2022-08-31T02:03:48.503Z,1.00
2022-08-31T02:05:19.969Z,0.94
2022-08-31T02:06:51.275Z,0.95
2022-08-31T02:08:22.823Z,0.98
2022-08-31T02:09:54.180Z,1.20
2022-08-31T02:11:25.754Z,1.37
2022-08-31T02:12:57.103Z,1.08
2022-08-31T02:14:28.524Z,0.92
2022-08-31T02:16:00.014Z,0.99
2022-08-31T02:17:31.406Z,1.01
2022-08-31T02:19:03.093Z,1.00
2022-08-31T02:20:35.645Z,1.15
2022-08-31T02:22:06.948Z,1.05
2022-08-31T02:23:38.807Z,0.98
2022-08-31T02:25:10.115Z,1.23
2022-08-31T02:26:41.457Z,1.09
2022-08-31T02:28:12.840Z,1.01
2022-08-31T02:29:44.188Z,1.23
2022-08-31T02:31:16.172Z,1.07
2022-08-31T02:32:47.520Z,0.97
2022-08-31T02:34:18.940Z,1.02
2022-08-31T02:35:51.791Z,1.15
2022-08-31T02:37:24.988Z,0.94
2022-08-31T02:38:56.390Z,0.98
2022-08-31T02:40:29.126Z,1.13
2022-08-31T02:42:00.579Z,0.97
2022-08-31T02:43:31.881Z,1.01
2022-08-31T02:45:03.167Z,1.08
2022-08-31T02:46:34.899Z,1.04
2022-08-31T02:48:06.419Z,0.99
2022-08-31T02:49:37.870Z,1.06
2022-08-31T02:51:09.152Z,0.99
2022-08-31T02:52:40.836Z,1.01
2022-08-31T02:54:12.194Z,1.00
2022-08-31T02:55:43.513Z,0.96
2022-08-31T02:57:15.104Z,1.02
2022-08-31T02:58:46.569Z,1.04
2022-08-31T03:00:17.968Z,1.13
2022-08-31T03:01:49.369Z,1.34
2022-08-31T03:03:20.832Z,1.28
2022-08-31T03:04:52.205Z,1.01
2022-08-31T03:06:23.590Z,1.11
2022-08-31T03:07:54.911Z,1.11
2022-08-31T03:09:26.242Z,1.16
2022-08-31T03:10:57.660Z,1.10
2022-08-31T03:12:29.186Z,1.01
2022-08-31T03:14:00.482Z,1.02
2022-08-31T03:15:31.833Z,1.16
2022-08-31T03:17:03.163Z,1.17
2022-08-31T03:18:34.526Z,1.18
2022-08-31T03:20:05.898Z,1.14
2022-08-31T03:21:37.362Z,1.08
2022-08-31T03:23:08.754Z,1.41
2022-08-31T03:24:41.194Z,1.27
2022-08-31T03:26:12.507Z,1.17
2022-08-31T03:27:44.136Z,1.10
2022-08-31T03:29:15.485Z,0.98
2022-08-31T03:30:46.955Z,1.11
2022-08-31T03:32:18.717Z,1.03
2022-08-31T03:33:50.037Z,1.12
2022-08-31T03:35:21.374Z,1.20
2022-08-31T03:36:52.682Z,1.08
2022-08-31T03:38:24.005Z,1.23
2022-08-31T03:39:55.317Z,1.30
2022-08-31T03:41:26.632Z,1.16
2022-08-31T03:42:57.938Z,1.29
2022-08-31T03:44:29.262Z,1.14
2022-08-31T03:46:00.636Z,1.21
2022-08-31T03:47:32.002Z,1.11
2022-08-31T03:49:03.601Z,1.23
2022-08-31T03:50:34.943Z,1.09
2022-08-31T03:52:06.323Z,1.11
2022-08-31T03:53:38.368Z,1.12
2022-08-31T03:55:09.680Z,1.26
2022-08-31T03:56:41.007Z,1.15
2022-08-31T03:58:12.305Z,1.23
2022-08-31T03:59:43.659Z,1.08
2022-08-31T04:01:15.088Z,1.01
2022-08-31T04:02:46.571Z,1.15
2022-08-31T04:04:18.000Z,1.13
2022-08-31T04:05:49.313Z,1.21
2022-08-31T04:07:20.636Z,1.20
2022-08-31T04:08:52.081Z,1.13
2022-08-31T04:10:27.446Z,1.05
2022-08-31T04:11:58.752Z,1.20
2022-08-31T04:13:30.518Z,1.10
2022-08-31T04:15:30.625Z,1.14
2022-08-31T04:17:02.075Z,1.13
2022-08-31T04:18:33.556Z,1.16
2022-08-31T04:20:04.950Z,1.15
2022-08-31T04:21:36.383Z,1.26
2022-08-31T04:23:07.768Z,1.36
2022-08-31T04:24:39.231Z,1.38
2022-08-31T04:26:10.607Z,1.22
2022-08-31T04:27:42.019Z,1.21
2022-08-31T04:29:13.817Z,1.27
2022-08-31T04:31:03.469Z,1.43
2022-08-31T04:32:34.996Z,1.32
2022-08-31T04:34:06.479Z,1.17
2022-08-31T04:35:37.925Z,1.32
2022-08-31T04:37:09.821Z,1.48
2022-08-31T04:38:41.579Z,1.11
2022-08-31T04:40:12.929Z,1.17
2022-08-31T04:41:44.400Z,1.09
2022-08-31T04:43:15.842Z,1.28
2022-08-31T04:44:47.347Z,1.24
2022-08-31T04:46:18.761Z,1.20
2022-08-31T04:47:50.296Z,1.17
2022-08-31T04:49:21.703Z,1.33
2022-08-31T04:50:53.168Z,1.50
2022-08-31T04:52:28.423Z,1.21
2022-08-31T04:53:59.939Z,1.24
2022-08-31T04:55:31.234Z,1.16
2022-08-31T04:57:02.663Z,1.15
2022-08-31T04:58:34.044Z,1.15
2022-08-31T05:00:05.717Z,1.29
2022-08-31T05:01:43.148Z,1.29
2022-08-31T05:03:14.967Z,1.20
2022-08-31T05:04:46.274Z,1.57
2022-08-31T05:06:17.757Z,1.35
2022-08-31T05:07:49.145Z,1.36
2022-08-31T05:09:21.667Z,1.49
2022-08-31T05:10:53.274Z,1.43
2022-08-31T05:12:24.744Z,1.34
2022-08-31T05:13:56.461Z,1.49
2022-08-31T05:15:27.752Z,1.55
2022-08-31T05:16:59.271Z,1.48
2022-08-31T05:18:35.717Z,1.44
2022-08-31T05:20:07.142Z,1.71
2022-08-31T05:21:38.424Z,1.50
2022-08-31T05:23:09.815Z,1.46
2022-08-31T05:24:41.334Z,1.56
2022-08-31T05:26:12.600Z,1.44
2022-08-31T05:27:44.016Z,1.74
2022-08-31T05:29:15.543Z,1.43
2022-08-31T05:30:47.186Z,1.56
2022-08-31T05:32:18.504Z,1.59
2022-08-31T05:33:50.090Z,1.51
2022-08-31T05:35:21.482Z,1.70
2022-08-31T05:36:52.817Z,1.44
2022-08-31T05:38:24.181Z,1.42
2022-08-31T05:39:55.571Z,1.51
2022-08-31T05:41:26.951Z,1.54
2022-08-31T05:42:58.911Z,1.48
2022-08-31T05:44:30.373Z,1.44
2022-08-31T05:46:03.654Z,1.74
2022-08-31T05:47:38.080Z,1.75
2022-08-31T05:49:10.998Z,1.69
2022-08-31T05:50:43.124Z,1.59
2022-08-31T05:52:14.503Z,1.51
2022-08-31T05:53:46.016Z,1.50
2022-08-31T05:55:17.330Z,1.40
2022-08-31T05:56:48.729Z,1.49
2022-08-31T05:58:20.031Z,1.45
2022-08-31T05:59:51.323Z,1.72
2022-08-31T06:01:23.923Z,1.61
2022-08-31T06:02:55.397Z,1.73
2022-08-31T06:04:26.885Z,1.71
2022-08-31T06:05:58.398Z,1.63
2022-08-31T06:07:29.782Z,1.53
2022-08-31T06:09:01.110Z,1.56
2022-08-31T06:10:32.729Z,1.62
2022-08-31T06:12:03.981Z,1.82
2022-08-31T06:13:35.323Z,1.65
2022-08-31T06:15:06.604Z,1.55
2022-08-31T06:16:37.975Z,1.56
2022-08-31T06:18:09.379Z,1.49
2022-08-31T06:19:40.939Z,1.56
2022-08-31T06:21:12.279Z,1.66
2022-08-31T06:22:43.633Z,1.63
2022-08-31T06:24:15.120Z,1.56
2022-08-31T06:25:46.519Z,1.96
2022-08-31T06:27:17.910Z,1.99
2022-08-31T06:28:49.194Z,1.58
2022-08-31T06:30:20.508Z,1.74
2022-08-31T06:31:51.861Z,1.65
2022-08-31T06:33:23.391Z,1.62
2022-08-31T06:34:54.904Z,1.64
2022-08-31T06:36:26.275Z,1.61
2022-08-31T06:37:59.601Z,1.50
2022-08-31T06:39:30.877Z,1.76
2022-08-31T06:41:02.291Z,1.90
2022-08-31T06:42:33.964Z,1.83
2022-08-31T06:44:05.283Z,1.56
2022-08-31T06:45:36.642Z,1.87
2022-08-31T06:47:09.333Z,1.61
2022-08-31T06:48:45.740Z,1.53
2022-08-31T06:50:17.141Z,1.74
2022-08-31T06:51:49.087Z,1.83
2022-08-31T06:53:20.692Z,1.94
2022-08-31T06:54:52.212Z,1.82
2022-08-31T06:56:23.533Z,1.61
2022-08-31T06:57:54.858Z,1.71
2022-08-31T06:59:28.770Z,1.52
2022-08-31T07:01:01.042Z,1.65
2022-08-31T07:02:32.909Z,1.59
2022-08-31T07:04:04.253Z,1.55
2022-08-31T07:05:35.686Z,1.54
2022-08-31T07:07:07.333Z,1.68
2022-08-31T07:08:38.889Z,1.60
2022-08-31T07:10:10.825Z,1.56
2022-08-31T07:11:44.523Z,1.62
2022-08-31T07:13:16.371Z,1.63
2022-08-31T07:14:54.535Z,1.64
2022-08-31T07:16:27.013Z,1.58
2022-08-31T07:17:58.474Z,1.85
2022-08-31T07:19:29.935Z,1.66
2022-08-31T07:21:01.349Z,1.77
2022-08-31T07:22:32.656Z,1.93
2022-08-31T07:24:03.943Z,2.04
2022-08-31T07:25:35.299Z,1.78
2022-08-31T07:27:06.730Z,1.78
2022-08-31T07:28:38.275Z,1.94
2022-08-31T07:30:09.606Z,1.84
2022-08-31T07:31:41.157Z,1.68
2022-08-31T07:33:12.650Z,1.73
2022-08-31T07:34:44.278Z,1.63
2022-08-31T07:36:15.696Z,1.59
2022-08-31T07:37:47.409Z,1.77
2022-08-31T07:39:18.738Z,1.72
2022-08-31T07:40:50.255Z,1.65
2022-08-31T07:42:21.734Z,1.56
2022-08-31T07:43:53.174Z,1.68
2022-08-31T07:45:30.216Z,1.52
2022-08-31T07:47:03.356Z,1.77
2022-08-31T07:48:34.725Z,1.30
2022-08-31T07:50:06.221Z,1.61
2022-08-31T07:51:37.589Z,1.67
2022-08-31T07:53:09.203Z,1.58
2022-08-31T07:54:41.093Z,1.67
2022-08-31T07:56:12.436Z,1.56
2022-08-31T07:57:44.267Z,1.61
2022-08-31T07:59:15.657Z,1.55
2022-08-31T08:00:47.041Z,1.70
2022-08-31T08:02:18.522Z,1.63
2022-08-31T08:03:50.396Z,1.80
2022-08-31T08:05:21.784Z,1.61
2022-08-31T08:06:58.663Z,1.68
2022-08-31T08:08:31.889Z,1.62
2022-08-31T08:10:03.439Z,1.56
2022-08-31T08:11:37.026Z,1.67
2022-08-31T08:13:08.680Z,1.76
2022-08-31T08:14:40.449Z,1.49
2022-08-31T08:16:11.900Z,1.85
2022-08-31T08:17:43.457Z,1.82
2022-08-31T08:19:14.892Z,1.93
2022-08-31T08:20:46.262Z,1.67
2022-08-31T08:22:35.759Z,1.84
2022-08-31T08:24:20.184Z,1.73
2022-08-31T08:25:53.839Z,2.10
2022-08-31T08:27:25.616Z,1.85
2022-08-31T08:28:57.268Z,1.78
2022-08-31T08:30:28.721Z,1.74
2022-08-31T08:32:05.330Z,1.98
2022-08-31T08:33:36.845Z,2.05
2022-08-31T08:35:08.153Z,2.09
2022-08-31T08:36:39.529Z,1.95
2022-08-31T08:38:11.054Z,2.09
2022-08-31T08:39:42.656Z,2.12
2022-08-31T08:41:14.162Z,2.01
2022-08-31T08:42:45.662Z,2.14
2022-08-31T08:44:18.080Z,2.12
2022-08-31T08:45:49.756Z,1.97
2022-08-31T08:47:21.222Z,2.03
2022-08-31T08:48:56.073Z,2.06
2022-08-31T08:50:27.863Z,2.08
2022-08-31T08:51:59.306Z,1.97
2022-08-31T08:53:30.856Z,2.31
2022-08-31T08:55:02.295Z,2.25
2022-08-31T08:56:34.352Z,2.01
2022-08-31T08:58:05.876Z,2.20
2022-08-31T08:59:37.235Z,2.28
2022-08-31T09:01:08.610Z,2.11
2022-08-31T09:02:40.270Z,2.18
2022-08-31T09:04:11.776Z,2.32
2022-08-31T09:05:43.154Z,2.26
2022-08-31T09:07:14.684Z,2.15
2022-08-31T09:08:46.082Z,2.20
2022-08-31T09:10:17.697Z,2.40
2022-08-31T09:11:49.173Z,2.31
2022-08-31T09:13:20.944Z,2.47
2022-08-31T09:14:57.447Z,2.45
2022-08-31T09:16:29.067Z,2.37
2022-08-31T09:18:00.631Z,2.46
2022-08-31T09:19:32.091Z,2.50
2022-08-31T09:21:05.025Z,2.34
2022-08-31T09:22:36.393Z,2.25
2022-08-31T09:24:07.812Z,2.50
2022-08-31T09:25:39.168Z,2.32
2022-08-31T09:27:10.623Z,2.33
2022-08-31T09:28:41.991Z,2.62
2022-08-31T09:30:13.342Z,2.46
2022-08-31T09:31:44.864Z,2.53
2022-08-31T09:33:16.473Z,2.90
2022-08-31T09:34:47.818Z,2.66
2022-08-31T09:36:19.256Z,2.68
2022-08-31T09:37:50.764Z,2.70
2022-08-31T09:39:22.148Z,2.38
2022-08-31T09:40:53.543Z,2.38
2022-08-31T09:42:25.491Z,2.56
2022-08-31T09:43:56.909Z,2.40
2022-08-31T09:45:28.839Z,2.52
2022-08-31T09:47:00.475Z,2.27
2022-08-31T09:48:31.867Z,2.37
2022-08-31T09:50:03.291Z,2.53
2022-08-31T09:51:35.272Z,2.50
2022-08-31T09:53:06.628Z,2.45
2022-08-31T09:54:41.018Z,2.68
2022-08-31T09:56:14.800Z,2.44
2022-08-31T09:57:46.779Z,2.69
2022-08-31T09:59:18.262Z,2.74
2022-08-31T10:00:49.645Z,2.42
2022-08-31T10:02:21.014Z,2.74
2022-08-31T10:03:52.515Z,2.57
2022-08-31T10:05:24.090Z,2.56
2022-08-31T10:06:55.691Z,2.73
2022-08-31T10:08:27.076Z,2.78
2022-08-31T10:09:58.493Z,2.54
2022-08-31T10:11:31.104Z,2.55
2022-08-31T10:13:02.595Z,2.38
2022-08-31T10:14:34.022Z,2.45
2022-08-31T10:16:05.520Z,2.23
2022-08-31T10:17:37.210Z,2.40
2022-08-31T10:19:08.630Z,2.54
2022-08-31T10:20:40.097Z,2.72
2022-08-31T10:22:11.620Z,2.53
2022-08-31T10:23:43.428Z,2.59
2022-08-31T10:25:14.955Z,2.77
2022-08-31T10:26:46.496Z,2.59
2022-08-31T10:28:17.941Z,2.68
2022-08-31T10:29:49.585Z,2.46
2022-08-31T10:31:21.224Z,2.60
2022-08-31T10:32:53.067Z,2.63
2022-08-31T10:34:24.478Z,2.58
2022-08-31T10:35:55.879Z,2.95
2022-08-31T10:37:27.547Z,2.45
2022-08-31T10:38:59.070Z,2.60
2022-08-31T10:40:30.544Z,2.79
2022-08-31T10:42:02.053Z,2.71
2022-08-31T10:43:33.544Z,2.54
2022-08-31T10:45:05.259Z,2.38
2022-08-31T10:46:36.755Z,2.64
2022-08-31T10:48:08.266Z,2.78
2022-08-31T10:49:39.674Z,2.46
2022-08-31T10:51:13.331Z,2.83
2022-08-31T10:52:45.709Z,2.45
2022-08-31T10:54:17.242Z,2.60
2022-08-31T10:55:48.958Z,2.72
2022-08-31T10:57:21.593Z,2.52
2022-08-31T10:58:54.771Z,2.56
2022-08-31T11:00:26.172Z,2.56
2022-08-31T11:01:57.636Z,2.43
2022-08-31T11:03:29.273Z,2.31
2022-08-31T11:05:00.951Z,2.58
2022-08-31T11:06:32.423Z,2.29
2022-08-31T11:08:03.914Z,2.49
2022-08-31T11:09:35.409Z,2.47
2022-08-31T11:11:06.834Z,2.38
2022-08-31T11:12:38.714Z,2.50
2022-08-31T11:14:10.468Z,2.34
2022-08-31T11:15:42.128Z,2.42
2022-08-31T11:17:13.953Z,2.46
2022-08-31T11:18:46.770Z,2.35
2022-08-31T11:20:18.267Z,2.24
2022-08-31T11:21:50.093Z,2.36
2022-08-31T11:23:21.742Z,2.32
2022-08-31T11:24:53.487Z,2.47
2022-08-31T11:26:25.184Z,2.29
2022-08-31T11:27:57.202Z,2.25
2022-08-31T11:29:28.641Z,2.43
2022-08-31T11:31:00.160Z,2.53
2022-08-31T11:32:32.846Z,2.29
2022-08-31T11:34:16.155Z,2.06
2022-08-31T11:35:48.083Z,2.16
2022-08-31T11:37:19.885Z,2.18
2022-08-31T11:38:51.553Z,2.26
2022-08-31T11:40:23.350Z,2.38
2022-08-31T11:41:54.851Z,2.32
2022-08-31T11:43:26.304Z,2.24
2022-08-31T11:44:58.256Z,2.11
2022-08-31T11:46:30.489Z,2.22
2022-08-31T11:48:02.003Z,2.01
2022-08-31T11:49:34.075Z,2.12
2022-08-31T11:51:05.658Z,2.03
2022-08-31T11:52:37.191Z,1.95
2022-08-31T11:54:08.732Z,2.36
2022-08-31T11:55:40.179Z,2.24
2022-08-31T11:57:11.598Z,1.95
2022-08-31T11:58:43.090Z,2.11
2022-08-31T12:00:14.528Z,2.49
2022-08-31T12:01:46.128Z,2.00
2022-08-31T12:03:17.849Z,1.96
2022-08-31T12:04:49.612Z,2.01
2022-08-31T12:06:21.160Z,2.38
2022-08-31T12:07:57.671Z,2.06
2022-08-31T12:09:29.118Z,2.02
2022-08-31T12:11:00.606Z,1.90
2022-08-31T12:12:32.097Z,2.14
2022-08-31T12:14:03.748Z,1.90
2022-08-31T12:15:35.334Z,1.94
2022-08-31T12:17:06.938Z,2.09
2022-08-31T12:18:38.872Z,1.86
2022-08-31T12:20:10.389Z,1.99
2022-08-31T12:21:41.964Z,2.14
2022-08-31T12:23:28.960Z,2.11
2022-08-31T12:25:02.039Z,2.11
2022-08-31T12:26:33.647Z,2.11
2022-08-31T12:28:05.117Z,1.92
2022-08-31T12:29:36.768Z,1.91
2022-08-31T12:31:09.177Z,2.09
2022-08-31T12:32:40.883Z,2.03
2022-08-31T12:34:17.604Z,1.92
2022-08-31T12:35:49.431Z,1.83
2022-08-31T12:37:21.204Z,1.81
2022-08-31T12:38:52.699Z,2.00
2022-08-31T12:40:24.287Z,2.01
2022-08-31T12:41:55.901Z,1.85
2022-08-31T12:43:27.729Z,1.92
2022-08-31T12:44:59.422Z,1.97
2022-08-31T12:46:31.225Z,2.18
2022-08-31T12:48:02.952Z,1.91
2022-08-31T12:49:34.710Z,1.93
2022-08-31T12:51:06.290Z,1.87
2022-08-31T12:52:37.867Z,1.89
2022-08-31T12:54:09.531Z,2.00
2022-08-31T12:55:41.072Z,1.90
2022-08-31T12:57:12.739Z,1.99
2022-08-31T12:58:44.258Z,1.84
2022-08-31T13:00:15.846Z,1.81
2022-08-31T13:01:47.552Z,1.83
2022-08-31T13:03:20.991Z,1.70
2022-08-31T13:04:53.045Z,1.68
2022-08-31T13:06:25.076Z,1.81
2022-08-31T13:07:56.767Z,2.20
2022-08-31T13:09:28.233Z,1.99
2022-08-31T13:10:59.746Z,2.07
2022-08-31T13:12:33.208Z,1.83
2022-08-31T13:14:04.756Z,1.92
2022-08-31T13:15:39.367Z,1.66
2022-08-31T13:17:11.833Z,1.78
2022-08-31T13:18:43.780Z,1.68
2022-08-31T13:20:15.316Z,1.72
2022-08-31T13:21:46.822Z,1.82
2022-08-31T13:23:18.550Z,1.89
2022-08-31T13:24:54.155Z,1.90
2022-08-31T13:26:25.941Z,1.89
2022-08-31T13:27:57.385Z,1.90
2022-08-31T13:29:28.855Z,1.72
2022-08-31T13:31:03.119Z,1.56
2022-08-31T13:32:35.394Z,1.80
2022-08-31T13:34:07.015Z,1.68
2022-08-31T13:35:38.567Z,1.69
2022-08-31T13:37:10.080Z,1.65
2022-08-31T13:38:41.821Z,1.70
2022-08-31T13:40:13.561Z,1.86
2022-08-31T13:41:45.122Z,1.81
2022-08-31T13:43:16.770Z,1.58
2022-08-31T13:44:48.329Z,1.76
2022-08-31T13:46:20.025Z,1.78
2022-08-31T13:47:57.412Z,1.75
2022-08-31T13:49:29.809Z,1.77
2022-08-31T13:51:01.782Z,1.73
2022-08-31T13:52:33.348Z,1.77
2022-08-31T13:54:04.872Z,1.66
2022-08-31T13:55:36.388Z,1.56
2022-08-31T13:57:07.916Z,1.61
2022-08-31T13:58:39.503Z,1.72
2022-08-31T14:00:11.110Z,1.71
2022-08-31T14:01:42.779Z,1.68
2022-08-31T14:03:17.864Z,1.67
2022-08-31T14:04:51.317Z,1.54
2022-08-31T14:06:22.894Z,1.80
2022-08-31T14:07:54.447Z,1.64
2022-08-31T14:09:26.017Z,1.97
2022-08-31T14:10:57.604Z,1.69
2022-08-31T14:12:29.074Z,1.72
2022-08-31T14:14:00.655Z,1.75
2022-08-31T14:15:32.360Z,1.82
2022-08-31T14:17:03.973Z,1.72
2022-08-31T14:18:35.678Z,1.88
2022-08-31T14:20:07.117Z,1.78
2022-08-31T14:21:38.719Z,1.50
2022-08-31T14:23:10.343Z,1.60
2022-08-31T14:24:41.847Z,1.68
2022-08-31T14:26:14.024Z,1.51
2022-08-31T14:27:46.580Z,1.69
2022-08-31T14:29:19.437Z,1.60
2022-08-31T14:30:51.090Z,1.59
2022-08-31T14:32:22.676Z,1.62
2022-08-31T14:33:54.173Z,1.53
2022-08-31T14:35:25.686Z,1.79
2022-08-31T14:36:57.229Z,1.72
2022-08-31T14:38:28.717Z,1.70
2022-08-31T14:40:04.171Z,1.66
2022-08-31T14:41:38.765Z,1.77
2022-08-31T14:43:10.217Z,1.55
2022-08-31T14:44:41.698Z,1.69
2022-08-31T14:46:13.352Z,1.62
2022-08-31T14:47:44.917Z,1.52
2022-08-31T14:49:16.562Z,1.67
2022-08-31T14:50:48.209Z,1.63
2022-08-31T14:52:19.652Z,1.51
2022-08-31T14:53:51.280Z,1.68
2022-08-31T14:55:22.788Z,1.57
2022-08-31T14:56:56.369Z,1.48
2022-08-31T14:58:28.127Z,1.60
2022-08-31T15:00:00.505Z,1.43
2022-08-31T15:01:32.063Z,1.54
2022-08-31T15:03:04.092Z,1.39
2022-08-31T15:04:38.861Z,1.55
2022-08-31T15:06:13.683Z,1.48
2022-08-31T15:07:45.238Z,1.56
2022-08-31T15:09:16.802Z,1.49
2022-08-31T15:10:48.658Z,1.46
2022-08-31T15:12:20.428Z,1.48
2022-08-31T15:13:51.866Z,1.42
2022-08-31T15:15:23.322Z,1.62
2022-08-31T15:16:54.976Z,1.60
2022-08-31T15:18:26.544Z,1.47
2022-08-31T15:20:00.394Z,1.64
2022-08-31T15:21:32.056Z,1.26
2022-08-31T15:23:03.752Z,1.29
2022-08-31T15:24:35.292Z,1.38
2022-08-31T15:26:06.891Z,1.35
2022-08-31T15:27:38.426Z,1.70
2022-08-31T15:29:11.521Z,1.49
2022-08-31T15:30:43.782Z,1.32
2022-08-31T15:32:15.549Z,1.50
2022-08-31T15:33:47.120Z,1.42
2022-08-31T15:35:18.646Z,1.55
2022-08-31T15:36:50.207Z,1.50
2022-08-31T15:38:21.780Z,1.40
2022-08-31T15:39:53.361Z,1.34
2022-08-31T15:41:25.144Z,1.41
2022-08-31T15:42:56.731Z,1.32
2022-08-31T15:44:28.312Z,1.28
2022-08-31T15:46:00.347Z,1.28
2022-08-31T15:47:32.043Z,1.46
2022-08-31T15:49:03.821Z,1.41
2022-08-31T15:50:35.589Z,1.32
2022-08-31T15:52:08.026Z,1.31
2022-08-31T15:53:39.694Z,1.42
2022-08-31T15:55:12.042Z,1.19
2022-08-31T15:56:53.824Z,1.29
2022-08-31T15:58:26.058Z,1.24
2022-08-31T15:59:58.092Z,1.30
2022-08-31T16:01:29.745Z,1.11
2022-08-31T16:03:01.599Z,1.51
2022-08-31T16:04:33.198Z,1.28
2022-08-31T16:06:04.870Z,1.27
2022-08-31T16:07:36.602Z,1.35
2022-08-31T16:09:08.208Z,1.33
2022-08-31T16:10:45.357Z,1.21
2022-08-31T16:12:16.834Z,1.33
2022-08-31T16:13:48.429Z,1.17
2022-08-31T16:15:23.365Z,1.13
2022-08-31T16:16:56.810Z,1.12
2022-08-31T16:18:28.605Z,1.31
2022-08-31T16:20:00.729Z,1.38
2022-08-31T16:21:33.846Z,1.46
2022-08-31T16:23:05.465Z,1.16
2022-08-31T16:24:37.436Z,1.20
2022-08-31T16:26:14.331Z,1.29
2022-08-31T16:27:46.028Z,1.36
2022-08-31T16:29:17.676Z,1.40
2022-08-31T16:30:51.322Z,1.38
2022-08-31T16:32:23.219Z,1.25
2022-08-31T16:33:54.833Z,1.05
2022-08-31T16:35:26.381Z,1.25
2022-08-31T16:36:58.629Z,1.45
2022-08-31T16:38:30.274Z,1.35
2022-08-31T16:40:02.021Z,1.48
2022-08-31T16:41:33.636Z,1.34
2022-08-31T16:43:05.513Z,1.34
2022-08-31T16:44:37.297Z,1.31
2022-08-31T16:46:37.070Z,1.46
2022-08-31T16:48:11.631Z,1.27
2022-08-31T16:49:43.604Z,1.23
2022-08-31T16:51:15.279Z,1.17
2022-08-31T16:52:46.959Z,1.12
2022-08-31T16:54:18.872Z,1.15
2022-08-31T16:55:51.062Z,1.12
2022-08-31T16:57:23.034Z,1.29
2022-08-31T16:58:55.000Z,1.14
2022-08-31T17:00:27.688Z,1.20
2022-08-31T17:02:04.755Z,1.12
2022-08-31T17:03:36.481Z,1.05
2022-08-31T17:05:08.217Z,1.14
2022-08-31T17:06:40.212Z,1.19
2022-08-31T17:08:12.033Z,0.94
2022-08-31T17:09:43.952Z,0.90
2022-08-31T17:11:15.950Z,1.05
2022-08-31T17:12:48.174Z,1.11
2022-08-31T17:14:19.757Z,1.13
2022-08-31T17:15:51.674Z,1.00
2022-08-31T17:17:23.464Z,1.16
2022-08-31T17:18:55.393Z,1.05
2022-08-31T17:20:26.995Z,1.12
2022-08-31T17:21:58.576Z,1.02
2022-08-31T17:23:30.108Z,1.16
2022-08-31T17:25:01.582Z,1.11
2022-08-31T17:26:33.124Z,1.18
2022-08-31T17:28:07.504Z,1.33
2022-08-31T17:29:43.557Z,1.07
2022-08-31T17:31:15.542Z,1.09
2022-08-31T17:32:47.076Z,1.03
2022-08-31T17:34:18.669Z,1.03
2022-08-31T17:35:50.106Z,1.17
2022-08-31T17:37:21.746Z,1.34
2022-08-31T17:38:53.474Z,1.13
2022-08-31T17:40:25.751Z,1.09
2022-08-31T17:41:57.341Z,1.00
2022-08-31T17:43:28.751Z,0.87
2022-08-31T17:45:00.446Z,1.00
2022-08-31T17:46:34.049Z,1.12
2022-08-31T17:48:05.687Z,1.00
2022-08-31T17:49:37.760Z,1.18
2022-08-31T17:51:09.943Z,1.26
2022-08-31T17:52:41.678Z,1.16
2022-08-31T17:54:13.079Z,1.20
2022-08-31T17:55:44.885Z,1.23
2022-08-31T17:57:16.445Z,1.21
2022-08-31T17:58:47.902Z,1.08
2022-08-31T18:00:19.289Z,1.02
2022-08-31T18:01:50.925Z,1.09
2022-08-31T18:03:23.092Z,1.21
2022-08-31T18:04:54.839Z,1.06
2022-08-31T18:06:28.384Z,1.12
2022-08-31T18:08:00.088Z,1.12
2022-08-31T18:09:36.829Z,1.12
2022-08-31T18:11:08.561Z,1.17
2022-08-31T18:12:40.857Z,1.07
2022-08-31T18:14:12.494Z,1.13
2022-08-31T18:15:44.118Z,1.10
2022-08-31T18:17:15.696Z,1.07
2022-08-31T18:18:47.573Z,1.07
2022-08-31T18:20:36.251Z,1.02
2022-08-31T18:22:08.310Z,1.09
2022-08-31T18:24:00.628Z,1.08
2022-08-31T18:25:42.721Z,1.30
2022-08-31T18:27:24.202Z,1.13
2022-08-31T18:29:05.699Z,1.15
2022-08-31T18:30:37.709Z,1.14
2022-08-31T18:32:29.859Z,1.30
2022-08-31T18:34:01.297Z,1.25
2022-08-31T18:35:32.703Z,1.37
2022-08-31T18:37:04.112Z,1.50
2022-08-31T18:38:35.566Z,1.34
2022-08-31T18:40:08.514Z,1.45
2022-08-31T18:41:40.353Z,1.46
2022-08-31T18:43:11.861Z,1.29
2022-08-31T18:44:43.267Z,1.23
2022-08-31T18:46:15.247Z,1.09
2022-08-31T18:48:01.667Z,1.18
2022-08-31T18:49:45.380Z,1.32
2022-08-31T18:51:19.579Z,1.28
2022-08-31T18:52:51.149Z,1.26
2022-08-31T18:54:22.809Z,1.20
2022-08-31T18:55:54.277Z,1.28
2022-08-31T18:57:25.717Z,1.16
2022-08-31T18:58:57.111Z,1.20
2022-08-31T19:00:28.547Z,1.21
2022-08-31T19:02:00.381Z,1.25
2022-08-31T19:03:32.318Z,1.09
2022-08-31T19:05:03.812Z,1.20
2022-08-31T19:06:35.233Z,1.28
2022-08-31T19:08:07.608Z,1.15
2022-08-31T19:09:44.133Z,1.19
2022-08-31T19:11:16.076Z,1.23
2022-08-31T19:12:47.608Z,1.06
2022-08-31T19:14:19.658Z,1.26
2022-08-31T19:15:51.939Z,1.34
2022-08-31T19:17:23.419Z,1.20
2022-08-31T19:18:54.906Z,1.53
2022-08-31T19:20:26.383Z,1.42
2022-08-31T19:21:58.227Z,1.43
2022-08-31T19:23:29.793Z,1.52
2022-08-31T19:25:01.325Z,1.59
2022-08-31T19:26:32.703Z,1.43
2022-08-31T19:28:04.227Z,1.50
2022-08-31T19:29:35.871Z,1.70
2022-08-31T19:31:07.318Z,1.61
2022-08-31T19:32:38.906Z,1.91
2022-08-31T19:34:10.532Z,1.69
2022-08-31T19:35:41.918Z,1.91
2022-08-31T19:37:13.876Z,1.89
2022-08-31T19:38:45.539Z,2.02
2022-08-31T19:40:17.708Z,1.64
2022-08-31T19:41:50.206Z,1.69
2022-08-31T19:43:50.279Z,1.71
2022-08-31T19:45:25.567Z,1.82
2022-08-31T19:47:24.452Z,1.96
2022-08-31T19:49:01.256Z,1.85
2022-08-31T19:50:32.785Z,1.54
2022-08-31T19:52:04.138Z,1.66
2022-08-31T19:53:35.622Z,2.19
2022-08-31T19:55:11.762Z,2.05
2022-08-31T19:56:43.246Z,1.78
2022-08-31T19:58:14.629Z,1.73
2022-08-31T19:59:46.573Z,1.71
2022-08-31T20:01:18.561Z,1.79
2022-08-31T20:02:50.335Z,2.04
2022-08-31T20:04:22.296Z,1.72
2022-08-31T20:05:55.421Z,2.03
2022-08-31T20:07:32.052Z,1.98
2022-08-31T20:09:06.857Z,2.08
2022-08-31T20:10:38.552Z,1.80
2022-08-31T20:12:10.076Z,1.67
2022-08-31T20:13:42.909Z,1.76
2022-08-31T20:15:14.312Z,1.79
2022-08-31T20:16:46.266Z,1.70
2022-08-31T20:18:17.711Z,1.60
2022-08-31T20:19:49.134Z,1.46
2022-08-31T20:21:20.527Z,1.61
2022-08-31T20:22:52.084Z,1.54
2022-08-31T20:24:23.489Z,1.60
2022-08-31T20:25:55.286Z,1.56
2022-08-31T20:27:26.864Z,1.64
2022-08-31T20:28:58.613Z,1.40